sensor_id;sensor_type;location;lat;lon;timestamp;P1;durP1;ratioP1;P2;durP2;ratioP2
9306;SDS011;4691;47.612;7.610;2022-11-03T00:00:30;34.53;;;14.55;;
9306;SDS011;4691;47.612;7.610;2022-11-03T00:02:55;36.80;;;14.55;;
9306;SDS011;4691;47.612;7.610;2022-11-03T00:05:21;33.60;;;14.77;;
9306;SDS011;4691;47.612;7.610;2022-11-03T00:08:04;33.63;;;14.68;;
9306;SDS011;4691;47.612;7.610;2022-11-03T00:10:30;40.25;;;15.15;;
9306;SDS011;4691;47.612;7.610;2022-11-03T00:12:55;40.58;;;14.73;;
9306;SDS011;4691;47.612;7.610;2022-11-03T00:15:21;34.38;;;15.13;;
9306;SDS011;4691;47.612;7.610;2022-11-03T00:17:46;33.58;;;14.57;;
9306;SDS011;4691;47.612;7.610;2022-11-03T00:20:11;36.08;;;13.77;;
9306;SDS011;4691;47.612;7.610;2022-11-03T00:22:37;30.63;;;14.48;;
9306;SDS011;4691;47.612;7.610;2022-11-03T00:25:02;36.25;;;14.73;;
9306;SDS011;4691;47.612;7.610;2022-11-03T00:27:28;29.17;;;11.65;;
9306;SDS011;4691;47.612;7.610;2022-11-03T00:29:53;28.17;;;9.77;;
9306;SDS011;4691;47.612;7.610;2022-11-03T00:32:19;29.60;;;13.27;;
9306;SDS011;4691;47.612;7.610;2022-11-03T00:34:44;30.20;;;13.68;;
9306;SDS011;4691;47.612;7.610;2022-11-03T00:37:09;37.45;;;14.57;;
9306;SDS011;4691;47.612;7.610;2022-11-03T00:39:34;27.42;;;15.07;;
9306;SDS011;4691;47.612;7.610;2022-11-03T00:42:00;32.17;;;14.43;;
9306;SDS011;4691;47.612;7.610;2022-11-03T00:44:25;38.25;;;14.88;;
9306;SDS011;4691;47.612;7.610;2022-11-03T00:46:51;33.83;;;15.00;;
9306;SDS011;4691;47.612;7.610;2022-11-03T00:49:16;36.10;;;15.48;;
9306;SDS011;4691;47.612;7.610;2022-11-03T00:51:42;31.70;;;13.68;;
9306;SDS011;4691;47.612;7.610;2022-11-03T00:54:07;31.20;;;14.20;;
9306;SDS011;4691;47.612;7.610;2022-11-03T00:56:36;29.38;;;13.32;;
9306;SDS011;4691;47.612;7.610;2022-11-03T00:59:04;30.10;;;14.80;;
9306;SDS011;4691;47.612;7.610;2022-11-03T01:01:34;23.35;;;11.65;;
9306;SDS011;4691;47.612;7.610;2022-11-03T01:04:01;37.75;;;12.85;;
9306;SDS011;4691;47.612;7.610;2022-11-03T01:06:46;33.08;;;13.65;;
9306;SDS011;4691;47.612;7.610;2022-11-03T01:12:01;34.35;;;14.55;;
9306;SDS011;4691;47.612;7.610;2022-11-03T01:14:34;26.02;;;12.52;;
9306;SDS011;4691;47.612;7.610;2022-11-03T01:17:00;28.92;;;13.57;;
9306;SDS011;4691;47.612;7.610;2022-11-03T01:19:26;24.05;;;11.60;;
9306;SDS011;4691;47.612;7.610;2022-11-03T01:21:52;24.85;;;12.70;;
9306;SDS011;4691;47.612;7.610;2022-11-03T01:24:17;30.55;;;13.55;;
9306;SDS011;4691;47.612;7.610;2022-11-03T01:26:43;23.92;;;12.10;;
9306;SDS011;4691;47.612;7.610;2022-11-03T01:29:08;35.35;;;13.10;;
9306;SDS011;4691;47.612;7.610;2022-11-03T01:31:34;28.60;;;11.00;;
9306;SDS011;4691;47.612;7.610;2022-11-03T01:33:59;23.77;;;12.18;;
9306;SDS011;4691;47.612;7.610;2022-11-03T01:36:25;23.15;;;10.63;;
9306;SDS011;4691;47.612;7.610;2022-11-03T01:38:50;24.10;;;10.73;;
9306;SDS011;4691;47.612;7.610;2022-11-03T01:41:19;21.48;;;10.85;;
9306;SDS011;4691;47.612;7.610;2022-11-03T01:43:48;22.92;;;11.05;;
9306;SDS011;4691;47.612;7.610;2022-11-03T01:46:20;28.58;;;11.05;;
9306;SDS011;4691;47.612;7.610;2022-11-03T01:49:06;19.20;;;10.75;;
9306;SDS011;4691;47.612;7.610;2022-11-03T01:51:35;26.27;;;12.57;;
9306;SDS011;4691;47.612;7.610;2022-11-03T01:54:02;25.58;;;11.13;;
9306;SDS011;4691;47.612;7.610;2022-11-03T01:56:30;23.98;;;11.38;;
9306;SDS011;4691;47.612;7.610;2022-11-03T01:58:58;32.20;;;12.23;;
9306;SDS011;4691;47.612;7.610;2022-11-03T02:01:24;37.55;;;15.13;;
9306;SDS011;4691;47.612;7.610;2022-11-03T02:03:51;26.05;;;12.48;;
9306;SDS011;4691;47.612;7.610;2022-11-03T02:06:21;30.52;;;11.65;;
9306;SDS011;4691;47.612;7.610;2022-11-03T02:08:53;39.22;;;14.05;;
9306;SDS011;4691;47.612;7.610;2022-11-03T02:11:24;35.28;;;10.98;;
9306;SDS011;4691;47.612;7.610;2022-11-03T02:14:11;29.40;;;11.93;;
9306;SDS011;4691;47.612;7.610;2022-11-03T02:16:37;27.47;;;11.53;;
9306;SDS011;4691;47.612;7.610;2022-11-03T02:19:04;39.47;;;11.38;;
9306;SDS011;4691;47.612;7.610;2022-11-03T02:21:41;24.08;;;9.68;;
9306;SDS011;4691;47.612;7.610;2022-11-03T02:24:14;22.95;;;8.88;;
9306;SDS011;4691;47.612;7.610;2022-11-03T02:26:47;27.38;;;8.63;;
9306;SDS011;4691;47.612;7.610;2022-11-03T02:29:17;20.73;;;9.00;;
9306;SDS011;4691;47.612;7.610;2022-11-03T02:31:47;25.08;;;9.57;;
9306;SDS011;4691;47.612;7.610;2022-11-03T02:34:32;29.10;;;10.27;;
9306;SDS011;4691;47.612;7.610;2022-11-03T02:37:06;27.15;;;10.02;;
9306;SDS011;4691;47.612;7.610;2022-11-03T02:39:37;28.73;;;11.40;;
9306;SDS011;4691;47.612;7.610;2022-11-03T02:42:07;27.25;;;10.60;;
9306;SDS011;4691;47.612;7.610;2022-11-03T02:44:35;32.30;;;9.82;;
9306;SDS011;4691;47.612;7.610;2022-11-03T02:47:04;28.38;;;10.30;;
9306;SDS011;4691;47.612;7.610;2022-11-03T02:49:39;32.65;;;10.77;;
9306;SDS011;4691;47.612;7.610;2022-11-03T02:52:29;35.95;;;10.60;;
9306;SDS011;4691;47.612;7.610;2022-11-03T02:55:00;30.52;;;11.77;;
9306;SDS011;4691;47.612;7.610;2022-11-03T02:57:31;30.40;;;10.63;;
9306;SDS011;4691;47.612;7.610;2022-11-03T03:05:29;24.10;;;9.45;;
9306;SDS011;4691;47.612;7.610;2022-11-03T03:08:00;24.67;;;10.45;;
9306;SDS011;4691;47.612;7.610;2022-11-03T03:10:29;26.63;;;10.13;;
9306;SDS011;4691;47.612;7.610;2022-11-03T03:12:59;28.77;;;10.30;;
9306;SDS011;4691;47.612;7.610;2022-11-03T03:15:32;40.65;;;9.98;;
9306;SDS011;4691;47.612;7.610;2022-11-03T03:19:46;33.75;;;9.80;;
9306;SDS011;4691;47.612;7.610;2022-11-03T03:22:21;24.35;;;9.93;;
9306;SDS011;4691;47.612;7.610;2022-11-03T03:25:02;30.63;;;9.60;;
9306;SDS011;4691;47.612;7.610;2022-11-03T03:27:30;32.25;;;9.75;;
9306;SDS011;4691;47.612;7.610;2022-11-03T03:30:02;35.33;;;10.38;;
9306;SDS011;4691;47.612;7.610;2022-11-03T03:32:30;26.40;;;9.57;;
9306;SDS011;4691;47.612;7.610;2022-11-03T03:35:02;21.42;;;8.60;;
9306;SDS011;4691;47.612;7.610;2022-11-03T03:37:32;31.33;;;9.13;;
9306;SDS011;4691;47.612;7.610;2022-11-03T03:40:02;21.42;;;9.55;;
9306;SDS011;4691;47.612;7.610;2022-11-03T03:42:31;23.92;;;9.98;;
9306;SDS011;4691;47.612;7.610;2022-11-03T03:45:00;28.23;;;9.48;;
9306;SDS011;4691;47.612;7.610;2022-11-03T03:47:27;34.78;;;10.35;;
9306;SDS011;4691;47.612;7.610;2022-11-03T03:49:54;26.65;;;9.50;;
9306;SDS011;4691;47.612;7.610;2022-11-03T03:52:20;38.83;;;11.15;;
9306;SDS011;4691;47.612;7.610;2022-11-03T03:54:46;29.92;;;9.98;;
9306;SDS011;4691;47.612;7.610;2022-11-03T03:57:15;29.45;;;10.45;;
9306;SDS011;4691;47.612;7.610;2022-11-03T03:59:44;30.75;;;11.48;;
9306;SDS011;4691;47.612;7.610;2022-11-03T04:02:10;26.77;;;10.52;;
9306;SDS011;4691;47.612;7.610;2022-11-03T04:04:36;31.00;;;10.63;;
9306;SDS011;4691;47.612;7.610;2022-11-03T04:07:02;28.95;;;9.80;;
9306;SDS011;4691;47.612;7.610;2022-11-03T04:09:46;26.88;;;11.18;;
9306;SDS011;4691;47.612;7.610;2022-11-03T04:12:11;30.45;;;10.45;;
9306;SDS011;4691;47.612;7.610;2022-11-03T04:14:55;29.38;;;10.88;;
9306;SDS011;4691;47.612;7.610;2022-11-03T04:17:41;33.70;;;11.82;;
9306;SDS011;4691;47.612;7.610;2022-11-03T04:20:27;35.35;;;12.00;;
9306;SDS011;4691;47.612;7.610;2022-11-03T04:23:10;32.25;;;12.75;;
9306;SDS011;4691;47.612;7.610;2022-11-03T04:25:36;36.65;;;12.50;;
9306;SDS011;4691;47.612;7.610;2022-11-03T04:28:06;38.85;;;12.90;;
9306;SDS011;4691;47.612;7.610;2022-11-03T04:30:34;37.83;;;12.48;;
9306;SDS011;4691;47.612;7.610;2022-11-03T04:32:59;37.70;;;12.95;;
9306;SDS011;4691;47.612;7.610;2022-11-03T04:35:25;36.08;;;13.73;;
9306;SDS011;4691;47.612;7.610;2022-11-03T04:38:34;38.35;;;14.43;;
9306;SDS011;4691;47.612;7.610;2022-11-03T04:40:43;40.03;;;14.73;;
9306;SDS011;4691;47.612;7.610;2022-11-03T04:43:14;42.65;;;16.08;;
9306;SDS011;4691;47.612;7.610;2022-11-03T04:45:41;40.28;;;15.32;;
9306;SDS011;4691;47.612;7.610;2022-11-03T04:48:12;41.83;;;14.93;;
9306;SDS011;4691;47.612;7.610;2022-11-03T04:50:39;41.20;;;14.15;;
9306;SDS011;4691;47.612;7.610;2022-11-03T04:53:10;47.47;;;16.02;;
9306;SDS011;4691;47.612;7.610;2022-11-03T04:55:41;36.10;;;15.85;;
9306;SDS011;4691;47.612;7.610;2022-11-03T04:58:16;47.70;;;15.70;;
9306;SDS011;4691;47.612;7.610;2022-11-03T05:00:42;36.75;;;14.95;;
9306;SDS011;4691;47.612;7.610;2022-11-03T05:03:09;37.10;;;15.52;;
9306;SDS011;4691;47.612;7.610;2022-11-03T05:05:41;46.20;;;16.25;;
9306;SDS011;4691;47.612;7.610;2022-11-03T05:08:07;40.78;;;17.70;;
9306;SDS011;4691;47.612;7.610;2022-11-03T05:10:33;43.13;;;17.33;;
9306;SDS011;4691;47.612;7.610;2022-11-03T05:12:58;45.90;;;17.40;;
9306;SDS011;4691;47.612;7.610;2022-11-03T05:15:35;36.85;;;15.57;;
9306;SDS011;4691;47.612;7.610;2022-11-03T05:18:19;44.10;;;17.35;;
9306;SDS011;4691;47.612;7.610;2022-11-03T05:23:17;41.88;;;16.90;;
9306;SDS011;4691;47.612;7.610;2022-11-03T05:25:43;47.33;;;18.30;;
9306;SDS011;4691;47.612;7.610;2022-11-03T05:30:39;45.08;;;17.17;;
9306;SDS011;4691;47.612;7.610;2022-11-03T05:35:54;43.67;;;16.42;;
9306;SDS011;4691;47.612;7.610;2022-11-03T05:38:23;35.60;;;16.73;;
9306;SDS011;4691;47.612;7.610;2022-11-03T05:40:52;48.30;;;16.37;;
9306;SDS011;4691;47.612;7.610;2022-11-03T05:43:18;47.15;;;16.48;;
9306;SDS011;4691;47.612;7.610;2022-11-03T05:45:44;42.92;;;16.30;;
9306;SDS011;4691;47.612;7.610;2022-11-03T05:48:19;41.00;;;16.85;;
9306;SDS011;4691;47.612;7.610;2022-11-03T05:50:54;45.95;;;17.00;;
9306;SDS011;4691;47.612;7.610;2022-11-03T05:55:57;40.15;;;15.82;;
9306;SDS011;4691;47.612;7.610;2022-11-03T06:00:51;44.15;;;16.88;;
9306;SDS011;4691;47.612;7.610;2022-11-03T06:03:21;42.75;;;16.30;;
9306;SDS011;4691;47.612;7.610;2022-11-03T06:05:59;47.45;;;16.27;;
9306;SDS011;4691;47.612;7.610;2022-11-03T06:08:32;35.35;;;15.68;;
9306;SDS011;4691;47.612;7.610;2022-11-03T06:11:00;36.60;;;15.13;;
9306;SDS011;4691;47.612;7.610;2022-11-03T06:13:29;41.30;;;17.73;;
9306;SDS011;4691;47.612;7.610;2022-11-03T06:16:00;43.22;;;23.65;;
9306;SDS011;4691;47.612;7.610;2022-11-03T06:21:15;46.97;;;17.70;;
9306;SDS011;4691;47.612;7.610;2022-11-03T06:23:45;51.38;;;18.25;;
9306;SDS011;4691;47.612;7.610;2022-11-03T06:26:13;49.38;;;17.52;;
9306;SDS011;4691;47.612;7.610;2022-11-03T06:28:42;42.92;;;18.30;;
9306;SDS011;4691;47.612;7.610;2022-11-03T06:31:13;54.53;;;19.77;;
9306;SDS011;4691;47.612;7.610;2022-11-03T06:33:41;50.60;;;19.48;;
9306;SDS011;4691;47.612;7.610;2022-11-03T06:36:10;41.67;;;19.40;;
9306;SDS011;4691;47.612;7.610;2022-11-03T06:38:42;45.90;;;19.10;;
9306;SDS011;4691;47.612;7.610;2022-11-03T06:41:13;52.95;;;20.17;;
9306;SDS011;4691;47.612;7.610;2022-11-03T06:43:47;52.38;;;20.23;;
9306;SDS011;4691;47.612;7.610;2022-11-03T06:48:47;44.28;;;19.38;;
9306;SDS011;4691;47.612;7.610;2022-11-03T06:51:18;44.40;;;19.85;;
9306;SDS011;4691;47.612;7.610;2022-11-03T06:53:45;47.50;;;21.27;;
9306;SDS011;4691;47.612;7.610;2022-11-03T06:56:13;43.72;;;18.88;;
9306;SDS011;4691;47.612;7.610;2022-11-03T06:58:41;48.40;;;21.30;;
9306;SDS011;4691;47.612;7.610;2022-11-03T07:01:11;44.20;;;19.52;;
9306;SDS011;4691;47.612;7.610;2022-11-03T07:03:40;55.92;;;21.77;;
9306;SDS011;4691;47.612;7.610;2022-11-03T07:08:35;50.28;;;23.45;;
9306;SDS011;4691;47.612;7.610;2022-11-03T07:11:10;58.20;;;25.42;;
9306;SDS011;4691;47.612;7.610;2022-11-03T07:13:40;49.15;;;22.05;;
9306;SDS011;4691;47.612;7.610;2022-11-03T07:16:12;46.70;;;20.08;;
9306;SDS011;4691;47.612;7.610;2022-11-03T07:18:42;47.30;;;20.67;;
9306;SDS011;4691;47.612;7.610;2022-11-03T07:24:04;50.58;;;21.33;;
9306;SDS011;4691;47.612;7.610;2022-11-03T07:26:40;48.95;;;21.40;;
9306;SDS011;4691;47.612;7.610;2022-11-03T07:29:07;55.80;;;21.80;;
9306;SDS011;4691;47.612;7.610;2022-11-03T07:31:45;49.90;;;21.42;;
9306;SDS011;4691;47.612;7.610;2022-11-03T07:34:12;48.90;;;21.38;;
9306;SDS011;4691;47.612;7.610;2022-11-03T07:36:44;48.83;;;20.52;;
9306;SDS011;4691;47.612;7.610;2022-11-03T07:39:11;43.80;;;20.75;;
9306;SDS011;4691;47.612;7.610;2022-11-03T07:41:39;55.05;;;21.50;;
9306;SDS011;4691;47.612;7.610;2022-11-03T07:44:07;48.72;;;22.73;;
9306;SDS011;4691;47.612;7.610;2022-11-03T07:46:37;48.85;;;21.00;;
9306;SDS011;4691;47.612;7.610;2022-11-03T07:49:03;47.17;;;21.58;;
9306;SDS011;4691;47.612;7.610;2022-11-03T07:51:33;48.35;;;21.55;;
9306;SDS011;4691;47.612;7.610;2022-11-03T07:56:33;43.30;;;21.10;;
9306;SDS011;4691;47.612;7.610;2022-11-03T08:01:56;50.40;;;22.00;;
9306;SDS011;4691;47.612;7.610;2022-11-03T08:04:29;47.75;;;20.77;;
9306;SDS011;4691;47.612;7.610;2022-11-03T08:06:56;47.45;;;21.13;;
9306;SDS011;4691;47.612;7.610;2022-11-03T08:09:22;51.78;;;21.42;;
9306;SDS011;4691;47.612;7.610;2022-11-03T08:11:47;46.22;;;20.83;;
9306;SDS011;4691;47.612;7.610;2022-11-03T08:14:13;42.67;;;18.77;;
9306;SDS011;4691;47.612;7.610;2022-11-03T08:16:39;39.95;;;19.92;;
9306;SDS011;4691;47.612;7.610;2022-11-03T08:19:04;45.55;;;19.98;;
9306;SDS011;4691;47.612;7.610;2022-11-03T08:21:30;43.83;;;19.52;;
9306;SDS011;4691;47.612;7.610;2022-11-03T08:23:56;37.88;;;18.88;;
9306;SDS011;4691;47.612;7.610;2022-11-03T08:26:21;39.10;;;18.90;;
9306;SDS011;4691;47.612;7.610;2022-11-03T08:28:47;35.95;;;16.42;;
9306;SDS011;4691;47.612;7.610;2022-11-03T08:31:12;40.40;;;17.90;;
9306;SDS011;4691;47.612;7.610;2022-11-03T08:33:38;38.58;;;18.67;;
9306;SDS011;4691;47.612;7.610;2022-11-03T08:36:04;39.22;;;18.42;;
9306;SDS011;4691;47.612;7.610;2022-11-03T08:38:29;37.00;;;17.70;;
9306;SDS011;4691;47.612;7.610;2022-11-03T08:40:55;29.88;;;14.68;;
9306;SDS011;4691;47.612;7.610;2022-11-03T08:43:22;30.35;;;15.43;;
9306;SDS011;4691;47.612;7.610;2022-11-03T08:45:48;31.63;;;15.65;;
9306;SDS011;4691;47.612;7.610;2022-11-03T08:48:18;30.20;;;13.80;;
9306;SDS011;4691;47.612;7.610;2022-11-03T08:50:47;32.20;;;15.93;;
9306;SDS011;4691;47.612;7.610;2022-11-03T08:53:14;31.52;;;15.90;;
9306;SDS011;4691;47.612;7.610;2022-11-03T08:55:40;31.45;;;14.55;;
9306;SDS011;4691;47.612;7.610;2022-11-03T08:58:05;33.50;;;14.85;;
9306;SDS011;4691;47.612;7.610;2022-11-03T09:00:31;28.02;;;13.65;;
9306;SDS011;4691;47.612;7.610;2022-11-03T09:02:56;30.23;;;15.48;;
9306;SDS011;4691;47.612;7.610;2022-11-03T09:05:21;26.77;;;14.57;;
9306;SDS011;4691;47.612;7.610;2022-11-03T09:07:47;31.92;;;14.35;;
9306;SDS011;4691;47.612;7.610;2022-11-03T09:10:12;31.80;;;14.68;;
9306;SDS011;4691;47.612;7.610;2022-11-03T09:12:37;27.10;;;14.48;;
9306;SDS011;4691;47.612;7.610;2022-11-03T09:15:04;27.33;;;14.57;;
9306;SDS011;4691;47.612;7.610;2022-11-03T09:17:30;23.75;;;12.25;;
9306;SDS011;4691;47.612;7.610;2022-11-03T09:19:55;27.08;;;11.90;;
9306;SDS011;4691;47.612;7.610;2022-11-03T09:22:21;24.38;;;12.70;;
9306;SDS011;4691;47.612;7.610;2022-11-03T09:24:46;26.30;;;12.90;;
9306;SDS011;4691;47.612;7.610;2022-11-03T09:27:12;23.58;;;12.77;;
9306;SDS011;4691;47.612;7.610;2022-11-03T09:29:37;24.25;;;11.80;;
9306;SDS011;4691;47.612;7.610;2022-11-03T09:32:02;25.73;;;12.73;;
9306;SDS011;4691;47.612;7.610;2022-11-03T09:34:28;22.50;;;12.38;;
9306;SDS011;4691;47.612;7.610;2022-11-03T09:36:54;22.38;;;12.40;;
9306;SDS011;4691;47.612;7.610;2022-11-03T09:39:19;27.08;;;13.48;;
9306;SDS011;4691;47.612;7.610;2022-11-03T09:41:45;24.88;;;13.70;;
9306;SDS011;4691;47.612;7.610;2022-11-03T09:44:10;26.27;;;14.13;;
9306;SDS011;4691;47.612;7.610;2022-11-03T09:46:35;28.13;;;15.82;;
9306;SDS011;4691;47.612;7.610;2022-11-03T09:49:01;29.77;;;15.43;;
9306;SDS011;4691;47.612;7.610;2022-11-03T09:51:28;27.85;;;15.25;;
9306;SDS011;4691;47.612;7.610;2022-11-03T09:53:56;20.55;;;12.23;;
9306;SDS011;4691;47.612;7.610;2022-11-03T09:56:25;19.63;;;11.38;;
9306;SDS011;4691;47.612;7.610;2022-11-03T09:58:51;20.67;;;12.82;;
9306;SDS011;4691;47.612;7.610;2022-11-03T10:01:16;21.80;;;12.02;;
9306;SDS011;4691;47.612;7.610;2022-11-03T10:03:42;24.25;;;12.50;;
9306;SDS011;4691;47.612;7.610;2022-11-03T10:06:07;25.20;;;11.48;;
9306;SDS011;4691;47.612;7.610;2022-11-03T10:08:33;22.77;;;12.00;;
9306;SDS011;4691;47.612;7.610;2022-11-03T10:11:00;21.92;;;11.65;;
9306;SDS011;4691;47.612;7.610;2022-11-03T10:13:33;21.77;;;12.15;;
9306;SDS011;4691;47.612;7.610;2022-11-03T10:16:02;24.65;;;13.60;;
9306;SDS011;4691;47.612;7.610;2022-11-03T10:18:30;27.42;;;12.02;;
9306;SDS011;4691;47.612;7.610;2022-11-03T10:20:57;23.20;;;11.93;;
9306;SDS011;4691;47.612;7.610;2022-11-03T10:23:27;21.13;;;10.45;;
9306;SDS011;4691;47.612;7.610;2022-11-03T10:25:55;17.75;;;9.82;;
9306;SDS011;4691;47.612;7.610;2022-11-03T10:28:31;19.85;;;10.20;;
9306;SDS011;4691;47.612;7.610;2022-11-03T10:38:39;22.97;;;11.30;;
9306;SDS011;4691;47.612;7.610;2022-11-03T10:41:12;25.08;;;11.50;;
9306;SDS011;4691;47.612;7.610;2022-11-03T10:43:43;21.05;;;10.10;;
9306;SDS011;4691;47.612;7.610;2022-11-03T10:46:10;15.55;;;9.10;;
9306;SDS011;4691;47.612;7.610;2022-11-03T10:48:44;16.08;;;8.07;;
9306;SDS011;4691;47.612;7.610;2022-11-03T10:51:23;16.92;;;8.93;;
9306;SDS011;4691;47.612;7.610;2022-11-03T10:53:48;18.30;;;10.27;;
9306;SDS011;4691;47.612;7.610;2022-11-03T10:56:13;25.15;;;10.35;;
9306;SDS011;4691;47.612;7.610;2022-11-03T10:58:39;16.48;;;9.27;;
9306;SDS011;4691;47.612;7.610;2022-11-03T11:01:04;14.10;;;8.80;;
9306;SDS011;4691;47.612;7.610;2022-11-03T11:03:30;14.55;;;7.75;;
9306;SDS011;4691;47.612;7.610;2022-11-03T11:05:55;10.40;;;6.18;;
9306;SDS011;4691;47.612;7.610;2022-11-03T11:08:22;13.85;;;8.20;;
9306;SDS011;4691;47.612;7.610;2022-11-03T11:10:47;12.02;;;7.10;;
9306;SDS011;4691;47.612;7.610;2022-11-03T11:15:49;14.32;;;6.90;;
9306;SDS011;4691;47.612;7.610;2022-11-03T11:23:42;12.10;;;7.82;;
9306;SDS011;4691;47.612;7.610;2022-11-03T11:28:37;17.13;;;8.10;;
9306;SDS011;4691;47.612;7.610;2022-11-03T11:34:17;16.75;;;9.18;;
9306;SDS011;4691;47.612;7.610;2022-11-03T11:42:10;18.63;;;8.98;;
9306;SDS011;4691;47.612;7.610;2022-11-03T11:49:47;16.80;;;8.13;;
9306;SDS011;4691;47.612;7.610;2022-11-03T11:52:12;15.48;;;9.00;;
9306;SDS011;4691;47.612;7.610;2022-11-03T11:54:40;17.48;;;9.27;;
9306;SDS011;4691;47.612;7.610;2022-11-03T11:57:16;18.60;;;9.32;;
9306;SDS011;4691;47.612;7.610;2022-11-03T11:59:44;19.63;;;11.20;;
9306;SDS011;4691;47.612;7.610;2022-11-03T12:02:32;18.45;;;10.80;;
9306;SDS011;4691;47.612;7.610;2022-11-03T12:04:57;18.52;;;10.05;;
9306;SDS011;4691;47.612;7.610;2022-11-03T12:07:33;18.42;;;10.27;;
9306;SDS011;4691;47.612;7.610;2022-11-03T12:10:10;26.88;;;10.85;;
9306;SDS011;4691;47.612;7.610;2022-11-03T12:12:47;24.85;;;12.75;;
9306;SDS011;4691;47.612;7.610;2022-11-03T12:18:32;25.17;;;10.90;;
9306;SDS011;4691;47.612;7.610;2022-11-03T12:21:03;16.70;;;9.52;;
9306;SDS011;4691;47.612;7.610;2022-11-03T12:23:40;17.83;;;9.98;;
9306;SDS011;4691;47.612;7.610;2022-11-03T12:26:18;27.90;;;11.05;;
9306;SDS011;4691;47.612;7.610;2022-11-03T12:29:05;19.40;;;10.20;;
9306;SDS011;4691;47.612;7.610;2022-11-03T12:31:30;17.60;;;9.55;;
9306;SDS011;4691;47.612;7.610;2022-11-03T12:33:55;16.90;;;9.70;;
9306;SDS011;4691;47.612;7.610;2022-11-03T12:36:21;16.77;;;9.25;;
9306;SDS011;4691;47.612;7.610;2022-11-03T12:38:46;17.40;;;9.57;;
9306;SDS011;4691;47.612;7.610;2022-11-03T12:41:11;13.68;;;8.95;;
9306;SDS011;4691;47.612;7.610;2022-11-03T12:43:49;15.88;;;9.25;;
9306;SDS011;4691;47.612;7.610;2022-11-03T12:46:16;19.25;;;10.00;;
9306;SDS011;4691;47.612;7.610;2022-11-03T12:48:43;20.90;;;11.10;;
9306;SDS011;4691;47.612;7.610;2022-11-03T12:51:19;19.42;;;10.20;;
9306;SDS011;4691;47.612;7.610;2022-11-03T12:53:46;23.73;;;11.20;;
9306;SDS011;4691;47.612;7.610;2022-11-03T12:56:12;22.55;;;12.23;;
9306;SDS011;4691;47.612;7.610;2022-11-03T12:58:39;22.08;;;10.82;;
9306;SDS011;4691;47.612;7.610;2022-11-03T13:01:04;15.55;;;9.25;;
9306;SDS011;4691;47.612;7.610;2022-11-03T13:03:30;17.02;;;9.98;;
9306;SDS011;4691;47.612;7.610;2022-11-03T13:06:22;25.17;;;11.30;;
9306;SDS011;4691;47.612;7.610;2022-11-03T13:08:47;20.75;;;11.27;;
9306;SDS011;4691;47.612;7.610;2022-11-03T13:11:14;18.42;;;10.85;;
9306;SDS011;4691;47.612;7.610;2022-11-03T13:13:58;20.33;;;10.82;;
9306;SDS011;4691;47.612;7.610;2022-11-03T13:16:23;24.05;;;11.43;;
9306;SDS011;4691;47.612;7.610;2022-11-03T13:18:49;21.30;;;10.23;;
9306;SDS011;4691;47.612;7.610;2022-11-03T13:21:14;17.17;;;8.90;;
9306;SDS011;4691;47.612;7.610;2022-11-03T13:23:40;18.73;;;9.98;;
9306;SDS011;4691;47.612;7.610;2022-11-03T13:26:05;17.73;;;10.57;;
9306;SDS011;4691;47.612;7.610;2022-11-03T13:28:31;19.08;;;10.80;;
9306;SDS011;4691;47.612;7.610;2022-11-03T13:30:56;28.38;;;11.60;;
9306;SDS011;4691;47.612;7.610;2022-11-03T13:33:21;19.83;;;11.50;;
9306;SDS011;4691;47.612;7.610;2022-11-03T13:35:47;24.80;;;11.52;;
9306;SDS011;4691;47.612;7.610;2022-11-03T13:38:12;22.75;;;11.07;;
9306;SDS011;4691;47.612;7.610;2022-11-03T13:40:38;23.27;;;12.20;;
9306;SDS011;4691;47.612;7.610;2022-11-03T13:43:03;22.05;;;11.70;;
9306;SDS011;4691;47.612;7.610;2022-11-03T13:45:28;23.88;;;11.65;;
9306;SDS011;4691;47.612;7.610;2022-11-03T13:47:54;26.75;;;12.60;;
9306;SDS011;4691;47.612;7.610;2022-11-03T13:50:19;27.75;;;13.80;;
9306;SDS011;4691;47.612;7.610;2022-11-03T13:52:44;28.55;;;14.65;;
9306;SDS011;4691;47.612;7.610;2022-11-03T13:55:10;24.98;;;13.65;;
9306;SDS011;4691;47.612;7.610;2022-11-03T13:57:36;28.70;;;14.75;;
9306;SDS011;4691;47.612;7.610;2022-11-03T14:00:05;30.70;;;15.32;;
9306;SDS011;4691;47.612;7.610;2022-11-03T14:02:32;35.38;;;16.35;;
9306;SDS011;4691;47.612;7.610;2022-11-03T14:04:58;27.42;;;14.50;;
9306;SDS011;4691;47.612;7.610;2022-11-03T14:07:23;31.67;;;15.32;;
9306;SDS011;4691;47.612;7.610;2022-11-03T14:09:49;30.90;;;15.13;;
9306;SDS011;4691;47.612;7.610;2022-11-03T14:12:14;35.25;;;15.90;;
9306;SDS011;4691;47.612;7.610;2022-11-03T14:14:55;27.63;;;16.10;;
9306;SDS011;4691;47.612;7.610;2022-11-03T14:17:21;31.25;;;15.77;;
9306;SDS011;4691;47.612;7.610;2022-11-03T14:19:46;28.08;;;15.73;;
9306;SDS011;4691;47.612;7.610;2022-11-03T14:22:12;29.95;;;15.77;;
9306;SDS011;4691;47.612;7.610;2022-11-03T14:24:37;30.50;;;15.35;;
9306;SDS011;4691;47.612;7.610;2022-11-03T14:27:02;33.95;;;15.55;;
9306;SDS011;4691;47.612;7.610;2022-11-03T14:29:28;27.70;;;15.30;;
9306;SDS011;4691;47.612;7.610;2022-11-03T14:31:53;25.55;;;14.02;;
9306;SDS011;4691;47.612;7.610;2022-11-03T14:34:19;32.22;;;15.40;;
9306;SDS011;4691;47.612;7.610;2022-11-03T14:36:44;28.35;;;13.85;;
9306;SDS011;4691;47.612;7.610;2022-11-03T14:39:09;29.33;;;14.25;;
9306;SDS011;4691;47.612;7.610;2022-11-03T14:41:35;26.42;;;14.15;;
9306;SDS011;4691;47.612;7.610;2022-11-03T14:44:18;26.52;;;13.90;;
9306;SDS011;4691;47.612;7.610;2022-11-03T14:46:44;27.83;;;15.10;;
9306;SDS011;4691;47.612;7.610;2022-11-03T14:49:09;28.95;;;14.15;;
9306;SDS011;4691;47.612;7.610;2022-11-03T14:51:34;28.08;;;14.70;;
9306;SDS011;4691;47.612;7.610;2022-11-03T14:54:00;28.20;;;14.48;;
9306;SDS011;4691;47.612;7.610;2022-11-03T14:56:25;28.40;;;14.52;;
9306;SDS011;4691;47.612;7.610;2022-11-03T14:58:50;32.28;;;15.27;;
9306;SDS011;4691;47.612;7.610;2022-11-03T15:01:16;27.33;;;15.00;;
9306;SDS011;4691;47.612;7.610;2022-11-03T15:03:42;29.60;;;15.82;;
9306;SDS011;4691;47.612;7.610;2022-11-03T15:06:08;31.58;;;15.50;;
9306;SDS011;4691;47.612;7.610;2022-11-03T15:08:34;34.38;;;14.68;;
9306;SDS011;4691;47.612;7.610;2022-11-03T15:10:59;28.90;;;14.30;;
9306;SDS011;4691;47.612;7.610;2022-11-03T15:13:24;24.63;;;14.10;;
9306;SDS011;4691;47.612;7.610;2022-11-03T15:15:50;26.15;;;14.63;;
9306;SDS011;4691;47.612;7.610;2022-11-03T15:18:15;29.98;;;15.20;;
9306;SDS011;4691;47.612;7.610;2022-11-03T15:20:40;30.83;;;15.07;;
9306;SDS011;4691;47.612;7.610;2022-11-03T15:23:06;48.45;;;21.63;;
9306;SDS011;4691;47.612;7.610;2022-11-03T15:25:32;31.20;;;14.70;;
9306;SDS011;4691;47.612;7.610;2022-11-03T15:27:58;29.63;;;15.85;;
9306;SDS011;4691;47.612;7.610;2022-11-03T15:30:23;148.82;;;48.08;;
9306;SDS011;4691;47.612;7.610;2022-11-03T15:32:50;33.13;;;15.95;;
9306;SDS011;4691;47.612;7.610;2022-11-03T15:35:15;31.10;;;14.27;;
9306;SDS011;4691;47.612;7.610;2022-11-03T15:37:41;29.80;;;15.52;;
9306;SDS011;4691;47.612;7.610;2022-11-03T15:40:07;26.73;;;15.68;;
9306;SDS011;4691;47.612;7.610;2022-11-03T15:42:34;32.15;;;16.40;;
9306;SDS011;4691;47.612;7.610;2022-11-03T15:45:00;29.95;;;16.40;;
9306;SDS011;4691;47.612;7.610;2022-11-03T15:47:25;24.27;;;14.18;;
9306;SDS011;4691;47.612;7.610;2022-11-03T15:49:51;29.08;;;14.82;;
9306;SDS011;4691;47.612;7.610;2022-11-03T15:52:16;34.28;;;16.13;;
9306;SDS011;4691;47.612;7.610;2022-11-03T15:54:41;27.40;;;15.02;;
9306;SDS011;4691;47.612;7.610;2022-11-03T15:57:07;23.25;;;14.60;;
9306;SDS011;4691;47.612;7.610;2022-11-03T15:59:32;30.52;;;15.32;;
9306;SDS011;4691;47.612;7.610;2022-11-03T16:01:57;28.20;;;16.02;;
9306;SDS011;4691;47.612;7.610;2022-11-03T16:04:22;33.58;;;16.52;;
9306;SDS011;4691;47.612;7.610;2022-11-03T16:06:48;29.98;;;15.48;;
9306;SDS011;4691;47.612;7.610;2022-11-03T16:09:13;29.25;;;16.02;;
9306;SDS011;4691;47.612;7.610;2022-11-03T16:11:39;29.73;;;16.35;;